Time;durP1;ratioP1;P1;durP2;ratioP2;P2;SDS_P1;SDS_P2;PMS_P1;PMS_P2;Temp;Humidity;BMP_temperature;BMP_pressure;BME280_temperature;BME280_humidity;BME280_pressure;Samples;Min_cycle;Max_cycle;Signal;HPM_P1;HPM_P2
2023/05/16 00:02:04;;;;;;;12.88;2.05;;;11.10;99.90;;;;;;5112398;28;20040;-87
2023/05/16 00:04:31;;;;;;;10.60;2.10;;;11.10;99.90;;;;;;5095424;28;20036;-87
2023/05/16 00:06:57;;;;;;;11.35;2.70;;;11.00;99.90;;;;;;5095188;28;20043;-86
2023/05/16 00:09:23;;;;;;;13.35;2.33;;;11.00;99.90;;;;;;5094949;28;20520;-87
2023/05/16 00:11:49;;;;;;;14.13;2.67;;;11.00;99.90;;;;;;5095232;28;20043;-87
2023/05/16 00:14:14;;;;;;;12.55;2.45;;;10.90;99.90;;;;;;5094962;28;20497;-87
2023/05/16 00:16:40;;;;;;;15.07;4.00;;;10.90;99.90;;;;;;5111804;28;20040;-87
2023/05/16 00:19:07;;;;;;;11.20;3.15;;;10.90;99.90;;;;;;5094894;28;20116;-87
2023/05/16 00:21:33;;;;;;;12.95;3.25;;;10.90;99.90;;;;;;5094875;28;20040;-87
2023/05/16 00:23:58;;;;;;;12.20;2.15;;;10.80;99.90;;;;;;5110879;28;20437;-86
2023/05/16 00:26:25;;;;;;;12.90;2.83;;;10.70;99.90;;;;;;5112131;28;20092;-86
2023/05/16 00:28:50;;;;;;;9.10;2.47;;;10.70;99.90;;;;;;5111716;28;20075;-87
2023/05/16 00:31:16;;;;;;;13.30;2.58;;;10.60;99.90;;;;;;5111350;28;20071;-87
2023/05/16 00:33:41;;;;;;;15.10;2.25;;;10.60;99.90;;;;;;5111542;28;20126;-87
2023/05/16 00:36:07;;;;;;;9.77;1.50;;;10.50;99.90;;;;;;5111446;28;20139;-87
2023/05/16 00:38:33;;;;;;;11.30;2.10;;;10.50;99.90;;;;;;5111468;28;20039;-87
2023/05/16 00:40:58;;;;;;;11.25;2.28;;;10.50;99.90;;;;;;5094191;28;20134;-86
2023/05/16 00:43:24;;;;;;;11.10;2.17;;;10.40;99.90;;;;;;5094520;28;20040;-87
2023/05/16 00:45:50;;;;;;;17.70;3.13;;;10.40;99.90;;;;;;5111292;28;20046;-86
2023/05/16 00:48:16;;;;;;;9.45;2.15;;;10.30;99.90;;;;;;5111012;28;20035;-86
2023/05/16 00:50:41;;;;;;;14.38;2.20;;;10.30;99.90;;;;;;5093982;28;20126;-86
2023/05/16 00:53:07;;;;;;;10.77;1.88;;;10.30;99.90;;;;;;5111247;28;20071;-86
2023/05/16 00:55:33;;;;;;;10.37;2.17;;;10.20;99.90;;;;;;5111382;28;20081;-86
2023/05/16 00:57:58;;;;;;;8.93;1.75;;;10.10;99.90;;;;;;5111105;28;20084;-87
2023/05/16 01:00:24;;;;;;;12.10;1.85;;;10.10;99.90;;;;;;5110854;28;20416;-86
2023/05/16 01:02:52;;;;;;;10.25;2.45;;;10.10;99.90;;;;;;5111121;28;20111;-86
2023/05/16 01:05:19;;;;;;;13.35;2.40;;;10.00;99.90;;;;;;5111172;28;20110;-87
2023/05/16 01:07:44;;;;;;;11.85;2.28;;;10.00;99.90;;;;;;5110932;28;20508;-86
2023/05/16 01:10:10;;;;;;;15.10;2.15;;;10.00;99.90;;;;;;5093767;28;20032;-86
2023/05/16 01:12:57;;;;;;;16.73;2.22;;;9.90;99.90;;;;;;5111370;28;20051;-86
2023/05/16 01:15:31;;;;;;;10.68;2.92;;;9.90;99.90;;;;;;5094316;28;20047;-87
2023/05/16 01:18:07;;;;;;;9.75;1.98;;;9.90;99.90;;;;;;5093792;28;20040;-87
2023/05/16 01:21:00;;;;;;;11.13;2.42;;;9.80;99.90;;;;;;5110842;28;20038;-86
2023/05/16 01:23:50;;;;;;;12.45;1.88;;;9.80;99.90;;;;;;5111058;28;20500;-87
2023/05/16 01:26:27;;;;;;;7.97;1.35;;;9.70;99.90;;;;;;5110948;28;20043;-87
2023/05/16 01:28:53;;;;;;;12.48;1.92;;;9.70;99.90;;;;;;5110728;28;20035;-86
2023/05/16 01:31:23;;;;;;;8.45;1.85;;;9.60;99.90;;;;;;5110871;28;20043;-87
2023/05/16 01:33:49;;;;;;;9.65;1.85;;;9.60;99.90;;;;;;5110759;28;20050;-86
2023/05/16 01:36:59;;;;;;;10.68;1.83;;;9.60;99.90;;;;;;5098233;28;20503;-87
2023/05/16 01:39:40;;;;;;;13.40;1.83;;;9.50;99.90;;;;;;5115312;28;20031;-87
2023/05/16 01:42:13;;;;;;;12.90;1.80;;;9.50;99.90;;;;;;5115394;28;20036;-88
2023/05/16 01:44:50;;;;;;;9.63;1.80;;;9.40;99.90;;;;;;5115134;28;20385;-88
2023/05/16 01:47:19;;;;;;;11.48;2.03;;;9.40;99.90;;;;;;5115086;28;20058;-88
2023/05/16 01:50:07;;;;;;;10.10;1.88;;;9.40;99.90;;;;;;5097453;28;20039;-88
2023/05/16 01:53:05;;;;;;;12.15;3.30;;;9.30;99.90;;;;;;5114892;28;20043;-88
2023/05/16 01:55:36;;;;;;;9.10;2.70;;;9.30;99.90;;;;;;5097953;28;20079;-88
2023/05/16 01:58:03;;;;;;;9.90;1.60;;;9.20;99.90;;;;;;5114585;28;20420;-88
2023/05/16 02:00:30;;;;;;;11.60;1.65;;;9.10;99.90;;;;;;5114528;28;20039;-88
2023/05/16 02:02:56;;;;;;;10.05;1.75;;;9.10;99.90;;;;;;5097469;28;20038;-88
2023/05/16 02:05:22;;;;;;;8.50;1.55;;;9.00;99.90;;;;;;5115061;28;20036;-88
2023/05/16 02:07:47;;;;;;;9.18;2.17;;;9.00;99.90;;;;;;5114596;28;20417;-88
2023/05/16 02:10:13;;;;;;;14.60;2.00;;;8.90;99.90;;;;;;5097224;28;20136;-88
2023/05/16 02:12:39;;;;;;;10.27;1.83;;;8.90;99.90;;;;;;5114592;28;20040;-88
2023/05/16 02:15:05;;;;;;;10.13;1.98;;;8.90;99.90;;;;;;5114544;28;20035;-88
2023/05/16 02:17:31;;;;;;;8.68;1.52;;;8.80;99.90;;;;;;5096952;28;20050;-88
2023/05/16 02:19:56;;;;;;;11.50;2.58;;;8.80;99.90;;;;;;5097423;28;20035;-88
2023/05/16 02:22:22;;;;;;;12.65;2.55;;;8.80;99.90;;;;;;5114264;28;20088;-88
2023/05/16 02:24:48;;;;;;;13.18;2.65;;;8.80;99.90;;;;;;5114486;28;20039;-88
2023/05/16 02:27:13;;;;;;;8.35;1.42;;;8.70;99.90;;;;;;5114195;28;20537;-88
2023/05/16 02:29:39;;;;;;;17.70;2.22;;;8.70;99.90;;;;;;5096856;28;20027;-88
2023/05/16 02:32:05;;;;;;;10.88;2.00;;;8.60;99.90;;;;;;5113968;28;20508;-88
2023/05/16 02:34:30;;;;;;;14.13;1.77;;;8.60;99.90;;;;;;5114172;28;20036;-88
2023/05/16 02:36:56;;;;;;;11.05;1.42;;;8.60;99.90;;;;;;5113942;28;20076;-88
2023/05/16 02:39:21;;;;;;;9.57;1.73;;;8.60;99.90;;;;;;5114045;28;20485;-89
2023/05/16 02:41:47;;;;;;;9.50;1.63;;;8.50;99.90;;;;;;5113551;28;20081;-88
2023/05/16 02:44:13;;;;;;;10.20;1.67;;;8.50;99.90;;;;;;5113996;28;20032;-88
2023/05/16 02:46:38;;;;;;;11.43;1.58;;;8.40;99.90;;;;;;5095597;28;20449;-88
2023/05/16 02:49:04;;;;;;;6.65;1.42;;;8.40;99.90;;;;;;5096550;28;20050;-88
2023/05/16 02:51:30;;;;;;;6.63;1.42;;;8.30;99.90;;;;;;5113174;28;20046;-87
2023/05/16 02:53:55;;;;;;;14.73;2.10;;;8.30;99.90;;;;;;5096509;28;20040;-88
2023/05/16 02:56:21;;;;;;;6.88;1.77;;;8.30;99.90;;;;;;5113387;28;20047;-88
2023/05/16 02:58:48;;;;;;;11.93;1.60;;;8.30;99.90;;;;;;5113809;28;20050;-88
2023/05/16 03:01:14;;;;;;;8.43;1.52;;;8.30;99.90;;;;;;5096050;28;20035;-88
2023/05/16 03:03:40;;;;;;;13.05;1.88;;;8.30;99.90;;;;;;5096228;28;20108;-88
2023/05/16 03:06:06;;;;;;;12.38;2.75;;;8.30;99.90;;;;;;5096659;28;20075;-88
2023/05/16 03:08:32;;;;;;;11.10;1.52;;;8.30;99.90;;;;;;5096194;28;20044;-88
2023/05/16 03:10:58;;;;;;;10.77;2.75;;;8.30;99.90;;;;;;5112947;28;20047;-88
2023/05/16 03:13:23;;;;;;;9.82;1.70;;;8.30;99.90;;;;;;5113099;28;20412;-88
2023/05/16 03:15:49;;;;;;;7.10;1.80;;;8.40;99.90;;;;;;5113023;28;20074;-88
2023/05/16 03:18:17;;;;;;;8.10;1.33;;;8.40;99.90;;;;;;5095943;28;20028;-89
2023/05/16 03:20:43;;;;;;;10.18;2.03;;;8.40;99.90;;;;;;5095763;28;20081;-88
2023/05/16 03:23:09;;;;;;;13.82;1.80;;;8.50;99.90;;;;;;5113122;28;20071;-88
2023/05/16 03:25:35;;;;;;;13.27;1.58;;;8.50;99.90;;;;;;5096361;28;20070;-88
2023/05/16 03:28:02;;;;;;;12.00;1.65;;;8.50;99.90;;;;;;5095781;28;20035;-88
2023/05/16 03:30:27;;;;;;;8.80;1.95;;;8.50;99.90;;;;;;5112297;28;20517;-88
2023/05/16 03:32:53;;;;;;;10.93;1.42;;;8.50;99.90;;;;;;5095889;28;20047;-88
2023/05/16 03:35:19;;;;;;;10.60;2.08;;;8.50;99.90;;;;;;5095720;28;20035;-88
2023/05/16 03:37:45;;;;;;;12.23;1.70;;;8.50;99.90;;;;;;5112585;28;20104;-88
2023/05/16 03:40:11;;;;;;;7.97;1.75;;;8.50;99.90;;;;;;5095506;28;20122;-88
2023/05/16 03:42:36;;;;;;;11.52;1.70;;;8.50;99.90;;;;;;5095707;28;20039;-88
2023/05/16 03:45:05;;;;;;;11.55;1.70;;;8.50;99.90;;;;;;5095416;28;20404;-87
2023/05/16 03:47:31;;;;;;;7.15;1.50;;;8.50;99.90;;;;;;5112442;28;20086;-88
2023/05/16 03:49:57;;;;;;;11.48;1.83;;;8.50;99.90;;;;;;5112581;28;20075;-89
2023/05/16 03:52:22;;;;;;;8.68;1.30;;;8.50;99.90;;;;;;5112324;28;20043;-88
2023/05/16 03:54:48;;;;;;;10.35;1.95;;;8.50;99.90;;;;;;5112675;28;20080;-88
2023/05/16 03:57:13;;;;;;;7.95;1.80;;;8.50;99.90;;;;;;5111851;28;20092;-87
2023/05/16 03:59:39;;;;;;;12.13;1.60;;;8.50;99.90;;;;;;5111956;28;20040;-88
2023/05/16 04:02:05;;;;;;;7.25;1.65;;;8.50;99.90;;;;;;5095284;28;20047;-88
2023/05/16 04:04:31;;;;;;;15.25;1.98;;;8.50;99.90;;;;;;5095461;28;20103;-88
2023/05/16 04:06:56;;;;;;;4.90;1.10;;;8.40;99.90;;;;;;5112285;28;20496;-88
2023/05/16 04:09:22;;;;;;;17.75;2.47;;;8.50;99.90;;;;;;5095419;28;20397;-88
2023/05/16 04:11:48;;;;;;;10.18;1.80;;;8.50;99.90;;;;;;5095131;28;20044;-89
2023/05/16 04:14:14;;;;;;;15.45;1.95;;;8.40;99.90;;;;;;5094862;28;20409;-88
2023/05/16 04:16:40;;;;;;;10.98;3.28;;;8.40;99.90;;;;;;5111994;28;20040;-88
2023/05/16 04:19:06;;;;;;;16.02;2.05;;;8.40;99.90;;;;;;5114297;27;21389;-88
2023/05/16 04:21:32;;;;;;;12.30;1.60;;;8.40;99.90;;;;;;5100007;28;20115;-88
2023/05/16 04:23:57;;;;;;;12.02;1.85;;;8.40;99.90;;;;;;5077847;28;20032;-88
2023/05/16 04:26:23;;;;;;;8.93;1.88;;;8.40;99.90;;;;;;5077906;28;20078;-88
2023/05/16 04:28:49;;;;;;;9.18;1.48;;;8.30;99.90;;;;;;5094530;28;20099;-88
2023/05/16 04:31:15;;;;;;;9.52;1.70;;;8.40;99.90;;;;;;5094375;28;20051;-88
2023/05/16 04:33:41;;;;;;;12.32;1.65;;;8.40;99.90;;;;;;5094950;28;20071;-88
2023/05/16 04:36:07;;;;;;;9.65;1.50;;;8.30;99.90;;;;;;5094488;28;20552;-89
2023/05/16 04:38:32;;;;;;;11.40;1.70;;;8.30;99.90;;;;;;5094562;28;20040;-88
2023/05/16 04:40:58;;;;;;;8.80;1.52;;;8.40;99.90;;;;;;5094146;28;20042;-88
2023/05/16 04:43:24;;;;;;;12.60;2.00;;;8.40;99.90;;;;;;5094385;28;20028;-88
2023/05/16 04:45:52;;;;;;;12.35;1.77;;;8.40;99.90;;;;;;5077614;28;20493;-88
2023/05/16 04:48:18;;;;;;;11.18;1.65;;;8.50;99.90;;;;;;5077410;28;20038;-88
2023/05/16 04:50:44;;;;;;;14.65;2.03;;;8.50;99.90;;;;;;5077516;28;20035;-88
2023/05/16 04:53:10;;;;;;;11.38;1.50;;;8.50;99.90;;;;;;5077705;28;20484;-88
2023/05/16 04:55:35;;;;;;;10.02;2.08;;;8.50;99.90;;;;;;5094163;28;20484;-88
2023/05/16 04:58:01;;;;;;;12.43;2.05;;;8.50;99.90;;;;;;5077104;28;20044;-88
2023/05/16 05:00:27;;;;;;;8.57;2.35;;;8.50;99.90;;;;;;5077309;28;20038;-88
2023/05/16 05:02:52;;;;;;;10.70;2.38;;;8.60;99.90;;;;;;5094450;28;20042;-88
2023/05/16 05:05:18;;;;;;;10.55;1.45;;;8.60;99.90;;;;;;5077563;28;20057;-88
2023/05/16 05:07:44;;;;;;;11.07;2.53;;;8.70;99.90;;;;;;5077601;28;20515;-88
2023/05/16 05:10:10;;;;;;;10.77;1.95;;;8.70;99.90;;;;;;5076504;28;20587;-88
2023/05/16 05:12:36;;;;;;;10.70;2.80;;;8.80;99.90;;;;;;5077407;28;20046;-88
2023/05/16 05:15:03;;;;;;;8.93;1.67;;;8.80;99.90;;;;;;5077213;28;20413;-87
2023/05/16 05:17:28;;;;;;;6.93;1.63;;;8.90;99.90;;;;;;5077106;28;20130;-88
2023/05/16 05:19:54;;;;;;;10.00;1.80;;;8.90;99.90;;;;;;5093921;28;20468;-88
2023/05/16 05:22:20;;;;;;;10.55;1.55;;;9.00;99.90;;;;;;5093996;28;20408;-87
2023/05/16 05:24:45;;;;;;;16.77;1.98;;;9.00;99.90;;;;;;5093966;28;20042;-88
2023/05/16 05:27:11;;;;;;;8.57;2.08;;;9.10;99.90;;;;;;5093958;28;20167;-88
2023/05/16 05:29:37;;;;;;;9.43;1.85;;;9.10;99.90;;;;;;5093936;28;20035;-88
2023/05/16 05:32:03;;;;;;;9.38;1.63;;;9.10;99.90;;;;;;5093772;28;20548;-89
2023/05/16 05:34:29;;;;;;;8.52;1.50;;;9.10;99.90;;;;;;5077323;28;20058;-88
2023/05/16 05:36:55;;;;;;;10.15;1.90;;;9.20;99.90;;;;;;5093545;28;20511;-88
2023/05/16 05:39:21;;;;;;;8.50;1.48;;;9.30;99.90;;;;;;5093999;28;20409;-88
2023/05/16 05:41:46;;;;;;;10.20;2.78;;;9.30;99.90;;;;;;5102973;28;20046;-89
2023/05/16 05:44:12;;;;;;;8.15;1.70;;;9.40;99.90;;;;;;5114102;28;20040;-88
2023/05/16 05:46:38;;;;;;;11.05;1.73;;;9.50;99.90;;;;;;5097160;28;20039;-89
2023/05/16 05:49:04;;;;;;;12.82;1.80;;;9.50;99.90;;;;;;5113995;28;20043;-88
2023/05/16 05:51:30;;;;;;;7.20;1.50;;;9.60;99.90;;;;;;5097161;28;20043;-88
2023/05/16 05:53:56;;;;;;;17.25;1.95;;;9.60;99.90;;;;;;5097289;28;20514;-89
2023/05/16 05:56:23;;;;;;;11.45;1.77;;;9.70;99.90;;;;;;5096939;28;20043;-88
2023/05/16 05:58:49;;;;;;;11.88;2.10;;;9.80;99.90;;;;;;5096868;28;20031;-88
2023/05/16 06:01:15;;;;;;;11.63;1.70;;;9.80;99.90;;;;;;5096628;28;20560;-88
2023/05/16 06:03:41;;;;;;;10.60;1.77;;;9.90;99.90;;;;;;5096580;28;20102;-89
2023/05/16 06:06:08;;;;;;;8.90;2.10;;;9.90;99.90;;;;;;5112643;28;20039;-89
2023/05/16 06:08:33;;;;;;;7.15;1.50;;;10.00;99.90;;;;;;5092332;28;20043;-90
2023/05/16 06:11:00;;;;;;;15.50;3.33;;;10.10;99.90;;;;;;5113356;28;20054;-90
2023/05/16 06:13:26;;;;;;;12.68;1.63;;;10.20;99.90;;;;;;5094214;28;20073;-89
2023/05/16 06:15:53;;;;;;;8.75;1.48;;;10.20;99.90;;;;;;5094890;28;20074;-89
2023/05/16 06:18:19;;;;;;;9.20;1.40;;;10.30;99.90;;;;;;5093047;28;20042;-89
2023/05/16 06:20:45;;;;;;;7.13;1.35;;;10.30;99.90;;;;;;5092045;28;20119;-89
2023/05/16 06:23:11;;;;;;;11.48;1.70;;;10.50;99.90;;;;;;5096581;28;20130;-89
2023/05/16 06:25:37;;;;;;;7.72;1.55;;;10.50;99.90;;;;;;5095234;28;20494;-89
2023/05/16 06:28:02;;;;;;;10.32;1.80;;;10.60;99.90;;;;;;5080044;28;20113;-89
2023/05/16 06:30:28;;;;;;;15.50;1.70;;;10.70;99.90;;;;;;5079875;28;20112;-89
2023/05/16 06:32:54;;;;;;;7.38;1.67;;;10.80;99.90;;;;;;5080400;28;20409;-89
2023/05/16 06:35:20;;;;;;;16.52;1.85;;;10.90;99.90;;;;;;5079929;28;20071;-89
2023/05/16 06:37:45;;;;;;;8.20;1.95;;;10.90;99.90;;;;;;5079836;28;20043;-89
2023/05/16 06:40:11;;;;;;;9.30;1.80;;;11.00;99.90;;;;;;5079404;28;20481;-89
2023/05/16 06:42:37;;;;;;;6.03;1.30;;;11.00;99.90;;;;;;5096309;28;20686;-90
2023/05/16 06:45:03;;;;;;;11.18;2.20;;;11.10;99.90;;;;;;5079806;28;20028;-89
2023/05/16 06:47:28;;;;;;;11.63;2.08;;;11.20;99.90;;;;;;5079542;28;20168;-89
2023/05/16 06:49:54;;;;;;;7.80;1.98;;;11.30;99.90;;;;;;5079408;28;20126;-89
2023/05/16 06:52:20;;;;;;;12.07;1.75;;;11.30;99.90;;;;;;5096599;28;20050;-89
2023/05/16 06:54:46;;;;;;;8.57;1.20;;;11.40;99.90;;;;;;5096234;28;20039;-89
2023/05/16 06:57:12;;;;;;;10.50;1.58;;;11.40;99.90;;;;;;5096132;28;20043;-88
2023/05/16 06:59:38;;;;;;;10.30;2.03;;;11.50;99.90;;;;;;5095973;28;20118;-88
2023/05/16 07:02:04;;;;;;;9.48;1.67;;;11.50;99.90;;;;;;5079745;28;20104;-89
2023/05/16 07:04:30;;;;;;;7.07;1.40;;;11.50;99.90;;;;;;5096204;28;20496;-89
2023/05/16 07:06:56;;;;;;;9.48;1.65;;;11.60;99.90;;;;;;5079408;28;20035;-89
2023/05/16 07:09:21;;;;;;;8.25;1.25;;;11.60;99.90;;;;;;5079027;28;20485;-89
2023/05/16 07:11:47;;;;;;;8.90;1.35;;;11.70;99.90;;;;;;5095035;28;20042;-89
2023/05/16 07:14:13;;;;;;;9.82;2.35;;;11.70;99.90;;;;;;5079052;28;20471;-89
2023/05/16 07:16:38;;;;;;;6.95;1.48;;;11.90;99.90;;;;;;5078950;28;20044;-90
2023/05/16 07:19:04;;;;;;;8.25;1.20;;;11.90;99.90;;;;;;5079093;28;20062;-89
2023/05/16 07:21:29;;;;;;;8.07;1.40;;;11.90;99.90;;;;;;5094990;28;20123;-90
2023/05/16 07:23:56;;;;;;;8.45;1.85;;;12.00;99.90;;;;;;5096145;28;20071;-89
2023/05/16 07:26:22;;;;;;;4.05;0.98;;;12.00;99.90;;;;;;5079349;28;20126;-90
2023/05/16 07:28:51;;;;;;;5.25;1.05;;;12.00;99.90;;;;;;5095629;28;20552;-89
2023/05/16 07:31:17;;;;;;;1.83;0.50;;;12.10;99.90;;;;;;5078794;28;20054;-89
2023/05/16 07:33:45;;;;;;;6.75;1.00;;;12.10;99.90;;;;;;5078470;28;20044;-89
2023/05/16 07:36:11;;;;;;;5.07;1.10;;;12.10;99.90;;;;;;5078472;28;20039;-89
2023/05/16 07:38:37;;;;;;;4.80;1.00;;;12.10;99.90;;;;;;5095545;28;20527;-89
2023/05/16 07:41:03;;;;;;;4.13;0.60;;;12.10;99.90;;;;;;5081575;27;20063;-89
2023/05/16 07:43:28;;;;;;;8.85;1.38;;;12.10;99.90;;;;;;5099082;27;20173;-89
2023/05/16 07:45:54;;;;;;;4.97;0.90;;;12.10;99.90;;;;;;5098843;27;20073;-89
2023/05/16 07:48:19;;;;;;;6.65;1.10;;;12.30;99.90;;;;;;5098774;27;20127;-90
2023/05/16 07:50:45;;;;;;;6.15;1.00;;;12.30;99.90;;;;;;5115316;27;20031;-90
2023/05/16 07:53:11;;;;;;;6.55;1.00;;;12.40;99.90;;;;;;5098882;27;20035;-89
2023/05/16 07:55:36;;;;;;;8.27;1.60;;;12.50;99.90;;;;;;5115829;27;20039;-89
2023/05/16 07:58:02;;;;;;;7.32;0.90;;;12.70;99.70;;;;;;5115464;27;20039;-89
2023/05/16 08:00:28;;;;;;;7.18;1.02;;;12.80;99.30;;;;;;5098207;27;20039;-89
2023/05/16 08:02:54;;;;;;;10.70;1.73;;;12.90;99.90;;;;;;5098300;27;20126;-89
2023/05/16 08:05:20;;;;;;;7.78;1.08;;;13.00;96.40;;;;;;5098248;27;20034;-90
2023/05/16 08:07:45;;;;;;;7.35;1.20;;;13.10;95.80;;;;;;5098686;27;20046;-90
2023/05/16 08:10:11;;;;;;;9.73;2.20;;;13.10;95.60;;;;;;5093340;27;20039;-89
2023/05/16 08:12:37;;;;;;;6.22;1.08;;;13.20;93.40;;;;;;5095166;27;20058;-90
2023/05/16 08:15:04;;;;;;;9.35;1.30;;;13.40;93.70;;;;;;5098081;27;20039;-90
2023/05/16 08:17:29;;;;;;;7.97;1.10;;;13.40;93.50;;;;;;5097288;27;20054;-89
2023/05/16 08:19:55;;;;;;;8.02;1.73;;;13.50;93.50;;;;;;5133016;27;20039;-89
2023/05/16 08:22:21;;;;;;;4.05;0.85;;;13.70;91.40;;;;;;5115401;27;20123;-89
2023/05/16 08:24:46;;;;;;;8.38;1.70;;;13.80;91.20;;;;;;5097662;27;20428;-89
2023/05/16 08:27:12;;;;;;;7.32;1.33;;;13.80;88.40;;;;;;5114007;27;20474;-88
2023/05/16 08:29:37;;;;;;;6.35;1.55;;;13.90;88.90;;;;;;5115287;27;20460;-89
2023/05/16 08:32:04;;;;;;;9.85;1.73;;;13.90;89.40;;;;;;5115139;27;20045;-89
2023/05/16 08:34:31;;;;;;;6.28;1.20;;;14.10;88.00;;;;;;5085651;28;20455;-89
2023/05/16 08:36:56;;;;;;;7.90;1.27;;;14.20;88.90;;;;;;5077783;28;20035;-89
2023/05/16 08:39:22;;;;;;;9.90;1.77;;;14.20;88.20;;;;;;5078064;28;20041;-89
2023/05/16 08:41:48;;;;;;;7.82;1.77;;;14.30;88.20;;;;;;5078093;28;20484;-89
2023/05/16 08:44:20;;;;;;;5.53;0.93;;;14.30;86.30;;;;;;5077166;28;20408;-89
2023/05/16 08:46:51;;;;;;;6.47;1.27;;;14.20;88.30;;;;;;5094775;28;20038;-89
2023/05/16 08:49:17;;;;;;;6.43;1.40;;;14.20;89.80;;;;;;5077926;28;20051;-89
2023/05/16 08:51:45;;;;;;;9.82;2.28;;;14.20;87.80;;;;;;5078351;28;20047;-89
2023/05/16 08:54:13;;;;;;;8.63;1.70;;;14.20;85.90;;;;;;5077948;28;20399;-89
2023/05/16 08:56:41;;;;;;;7.57;1.88;;;14.30;84.90;;;;;;5094552;28;20511;-89
2023/05/16 08:59:06;;;;;;;8.05;1.58;;;14.30;84.80;;;;;;5077623;28;20046;-88
2023/05/16 09:01:32;;;;;;;5.05;1.27;;;14.30;86.10;;;;;;5094548;28;20040;-89
2023/05/16 09:03:59;;;;;;;7.05;1.60;;;14.30;86.90;;;;;;5094557;28;20067;-89
2023/05/16 09:06:26;;;;;;;5.75;1.55;;;14.40;85.70;;;;;;5077496;28;20115;-90
2023/05/16 09:08:52;;;;;;;4.75;0.90;;;14.50;84.90;;;;;;5077780;28;20050;-90
2023/05/16 09:11:18;;;;;;;5.30;1.17;;;14.60;85.30;;;;;;5075588;28;20036;-89
2023/05/16 09:13:44;;;;;;;9.73;2.03;;;14.70;84.20;;;;;;5093182;28;20092;-89
2023/05/16 09:16:11;;;;;;;11.48;2.95;;;14.80;84.20;;;;;;5094316;28;20039;-89
2023/05/16 09:18:37;;;;;;;4.72;1.23;;;15.00;83.90;;;;;;5093439;28;20035;-89
2023/05/16 09:21:04;;;;;;;10.07;2.55;;;15.20;84.20;;;;;;5110612;28;20047;-89
2023/05/16 09:23:30;;;;;;;7.18;2.45;;;15.30;83.30;;;;;;5077392;28;20408;-89
2023/05/16 09:25:57;;;;;;;8.75;1.88;;;15.30;81.40;;;;;;5111305;28;20032;-89
2023/05/16 09:28:24;;;;;;;10.90;1.90;;;15.20;80.00;;;;;;5110984;28;20066;-88
2023/05/16 09:30:52;;;;;;;9.65;1.90;;;15.10;78.20;;;;;;5111144;28;20042;-89
2023/05/16 09:33:18;;;;;;;7.80;1.30;;;15.00;76.10;;;;;;5093786;28;20060;-89
2023/05/16 09:35:43;;;;;;;9.88;1.40;;;14.80;76.50;;;;;;5094265;28;20147;-89
2023/05/16 09:38:16;;;;;;;11.68;2.00;;;14.70;77.40;;;;;;5110931;28;20515;-89
2023/05/16 09:40:42;;;;;;;9.30;1.90;;;14.80;78.10;;;;;;5110616;28;20042;-89
2023/05/16 09:43:08;;;;;;;10.30;2.13;;;14.90;77.70;;;;;;5093684;28;20039;-89
2023/05/16 09:45:35;;;;;;;10.68;2.55;;;15.00;76.40;;;;;;5092583;28;20042;-89
2023/05/16 09:48:13;;;;;;;9.55;2.00;;;15.10;76.20;;;;;;5110127;28;20035;-89
2023/05/16 09:50:41;;;;;;;4.70;1.00;;;15.30;77.50;;;;;;5109908;28;20082;-89
2023/05/16 09:53:07;;;;;;;7.97;1.73;;;15.30;77.30;;;;;;5093548;28;20047;-89
2023/05/16 09:55:33;;;;;;;8.50;1.70;;;15.50;76.00;;;;;;5094880;28;20051;-90
2023/05/16 09:57:59;;;;;;;13.88;2.03;;;15.60;74.50;;;;;;5114500;28;20225;-89
2023/05/16 10:00:31;;;;;;;6.55;1.00;;;15.70;74.70;;;;;;5115011;28;20032;-90
2023/05/16 10:02:58;;;;;;;4.68;1.00;;;15.70;75.30;;;;;;5097798;28;20035;-90
2023/05/16 10:05:27;;;;;;;7.40;1.67;;;15.70;77.40;;;;;;5097656;28;20105;-90
2023/05/16 10:07:55;;;;;;;7.97;1.58;;;15.80;75.00;;;;;;5114918;28;20400;-90
2023/05/16 10:10:21;;;;;;;9.20;2.03;;;16.00;73.80;;;;;;5097583;28;20062;-89
2023/05/16 10:12:49;;;;;;;9.93;2.10;;;16.10;72.90;;;;;;5114890;28;20404;-89
2023/05/16 10:15:16;;;;;;;6.95;1.52;;;16.20;74.10;;;;;;5114681;28;20052;-90
2023/05/16 10:17:44;;;;;;;8.70;2.17;;;16.30;74.50;;;;;;5097274;28;20213;-87
2023/05/16 10:20:11;;;;;;;11.82;2.00;;;16.40;73.20;;;;;;5097239;28;20050;-89
2023/05/16 10:22:42;;;;;;;10.60;2.17;;;16.50;72.40;;;;;;5114847;28;20493;-89
2023/05/16 10:25:17;;;;;;;10.13;2.45;;;16.40;71.50;;;;;;5114387;28;20450;-89
2023/05/16 10:27:43;;;;;;;9.32;2.42;;;16.40;70.80;;;;;;5114287;28;20050;-90
2023/05/16 10:30:09;;;;;;;9.43;1.92;;;16.50;71.50;;;;;;5097118;28;20043;-89
2023/05/16 10:32:36;;;;;;;10.70;2.05;;;16.60;72.60;;;;;;5096419;28;20370;-89
2023/05/16 10:35:03;;;;;;;8.05;1.65;;;16.60;71.40;;;;;;5114190;28;20043;-89
2023/05/16 10:37:30;;;;;;;8.48;1.80;;;16.60;71.00;;;;;;5114033;28;20051;-89
2023/05/16 10:39:58;;;;;;;9.15;2.05;;;16.60;70.50;;;;;;5096848;28;20035;-90
2023/05/16 10:42:24;;;;;;;8.60;1.70;;;16.50;69.30;;;;;;5112863;28;20408;-90
2023/05/16 10:44:53;;;;;;;9.32;1.55;;;16.50;67.90;;;;;;5097148;28;20036;-90
2023/05/16 10:47:19;;;;;;;7.03;1.13;;;16.60;68.00;;;;;;5096556;28;20213;-90
2023/05/16 10:49:45;;;;;;;8.20;1.63;;;16.70;69.30;;;;;;5096791;28;20070;-90
2023/05/16 10:52:12;;;;;;;6.70;1.67;;;16.80;66.40;;;;;;5097130;28;20040;-90
2023/05/16 10:54:39;;;;;;;10.07;1.80;;;16.90;65.70;;;;;;5096932;28;20052;-90
2023/05/16 10:57:11;;;;;;;7.22;1.80;;;17.10;66.30;;;;;;5097016;28;20147;-90
2023/05/16 10:59:42;;;;;;;8.63;1.70;;;17.20;66.40;;;;;;5096476;28;20038;-89
2023/05/16 11:02:31;;;;;;;9.57;2.30;;;17.30;66.50;;;;;;5113410;28;20039;-90
2023/05/16 11:04:59;;;;;;;6.88;1.60;;;17.50;66.80;;;;;;5113406;27;20039;-91
2023/05/16 11:07:33;;;;;;;14.23;2.00;;;17.50;66.50;;;;;;5087987;27;20125;-90
2023/05/16 11:10:03;;;;;;;9.20;2.13;;;17.60;67.90;;;;;;5101109;28;20039;-89
2023/05/16 11:12:35;;;;;;;9.63;2.05;;;17.60;68.10;;;;;;5096298;28;20043;-89
2023/05/16 11:15:16;;;;;;;;;;;17.50;66.90;;;;;;5093475;28;20047;-89
2023/05/16 11:17:42;;;;;;;10.23;2.22;;;17.30;67.00;;;;;;5075759;28;19970;-89
2023/05/16 11:20:24;;;;;;;7.07;1.63;;;17.30;66.50;;;;;;5091971;28;20102;-89
2023/05/16 11:22:50;;;;;;;10.20;2.25;;;17.40;66.40;;;;;;5096329;28;20051;-89
2023/05/16 11:25:33;;;;;;;10.52;1.80;;;17.50;67.00;;;;;;5096348;28;20042;-89
2023/05/16 11:27:59;;;;;;;10.50;1.80;;;17.50;66.30;;;;;;5079381;28;20080;-89
2023/05/16 11:30:25;;;;;;;10.73;1.92;;;17.50;65.70;;;;;;5078910;28;20035;-90
2023/05/16 11:32:51;;;;;;;8.90;1.75;;;17.50;65.80;;;;;;5096110;28;20115;-89
2023/05/16 11:35:17;;;;;;;11.90;2.05;;;17.50;65.30;;;;;;5078808;28;20135;-89
2023/05/16 11:37:46;;;;;;;9.18;1.63;;;17.50;65.80;;;;;;5078935;28;20036;-89
2023/05/16 11:40:13;;;;;;;9.10;1.90;;;17.60;65.70;;;;;;5095559;28;20122;-89
2023/05/16 11:42:46;;;;;;;7.40;1.80;;;17.70;66.20;;;;;;5078996;28;20477;-89
2023/05/16 11:45:18;;;;;;;7.43;1.40;;;17.90;66.50;;;;;;5078803;28;20067;-89
2023/05/16 11:47:46;;;;;;;6.97;1.55;;;18.10;67.00;;;;;;5095551;28;20043;-89
2023/05/16 11:50:13;;;;;;;8.27;1.92;;;18.20;66.10;;;;;;5078640;28;20043;-89
2023/05/16 11:52:43;;;;;;;6.90;1.50;;;18.40;66.40;;;;;;5078690;28;20122;-90
2023/05/16 11:55:10;;;;;;;10.20;1.90;;;18.40;65.50;;;;;;5078874;28;20521;-90
2023/05/16 11:57:43;;;;;;;7.50;2.10;;;18.60;64.50;;;;;;5078670;28;20082;-90
2023/05/16 12:00:20;;;;;;;8.15;1.65;;;18.60;64.30;;;;;;5078767;28;20031;-90
2023/05/16 12:02:46;;;;;;;6.72;1.52;;;18.60;64.30;;;;;;5095422;28;20039;-90
2023/05/16 12:05:12;;;;;;;8.98;1.60;;;18.50;64.10;;;;;;5113709;28;20054;-90
2023/05/16 12:07:38;;;;;;;7.18;1.90;;;18.40;63.30;;;;;;5113414;28;20490;-90
2023/05/16 12:10:06;;;;;;;10.20;2.10;;;18.30;62.80;;;;;;5077944;28;20071;-90
2023/05/16 12:12:32;;;;;;;8.68;2.10;;;18.40;63.40;;;;;;5078799;28;20035;-89
2023/05/16 12:14:58;;;;;;;7.50;1.80;;;18.40;62.40;;;;;;5095288;28;20173;-89
2023/05/16 12:17:24;;;;;;;8.90;1.98;;;18.30;62.40;;;;;;5078070;28;20116;-89
2023/05/16 12:19:50;;;;;;;10.02;2.38;;;18.20;61.70;;;;;;5076825;28;20416;-89
2023/05/16 12:22:17;;;;;;;11.68;2.10;;;18.00;62.10;;;;;;5078047;28;20123;-89
2023/05/16 12:24:43;;;;;;;9.35;2.00;;;17.90;62.10;;;;;;5078599;28;20126;-89
2023/05/16 12:27:08;;;;;;;10.02;2.17;;;17.70;62.80;;;;;;5078168;28;20071;-89
2023/05/16 12:29:34;;;;;;;10.52;2.03;;;17.60;62.60;;;;;;5077819;28;20054;-89
2023/05/16 12:32:00;;;;;;;10.43;2.08;;;17.50;63.50;;;;;;5078113;28;20093;-89
2023/05/16 12:34:29;;;;;;;9.85;2.22;;;17.20;65.20;;;;;;5077893;28;20554;-89
2023/05/16 12:36:55;;;;;;;9.02;2.17;;;17.00;66.20;;;;;;5077717;28;20047;-88
2023/05/16 12:39:21;;;;;;;9.27;1.85;;;16.90;67.60;;;;;;5078165;28;20028;-89
2023/05/16 12:41:47;;;;;;;8.57;1.95;;;17.00;68.30;;;;;;5077611;28;20035;-89
2023/05/16 12:44:16;;;;;;;8.98;2.42;;;17.20;70.30;;;;;;5077900;28;20088;-90
2023/05/16 12:46:51;;;;;;;5.60;1.63;;;17.50;69.80;;;;;;5077642;28;20638;-89